sensor_id;sensor_type;location;lat;lon;timestamp;temperature;humidity
56478;DHT22;42382;53.210;5.772;2023-05-03T00:02:09;8.80;70.20
56478;DHT22;42382;53.210;5.772;2023-05-03T00:04:35;8.70;69.90
56478;DHT22;42382;53.210;5.772;2023-05-03T00:07:02;8.80;69.80
56478;DHT22;42382;53.210;5.772;2023-05-03T00:09:33;8.80;69.80
56478;DHT22;42382;53.210;5.772;2023-05-03T00:12:00;8.80;69.80
56478;DHT22;42382;53.210;5.772;2023-05-03T00:14:26;8.90;69.90
56478;DHT22;42382;53.210;5.772;2023-05-03T00:16:54;8.90;69.70
56478;DHT22;42382;53.210;5.772;2023-05-03T00:19:20;8.90;69.90
56478;DHT22;42382;53.210;5.772;2023-05-03T00:21:46;8.90;69.90
56478;DHT22;42382;53.210;5.772;2023-05-03T00:24:11;8.90;70.00
56478;DHT22;42382;53.210;5.772;2023-05-03T00:26:37;8.90;70.00
56478;DHT22;42382;53.210;5.772;2023-05-03T00:29:03;9.00;70.10
56478;DHT22;42382;53.210;5.772;2023-05-03T00:31:28;9.00;70.20
56478;DHT22;42382;53.210;5.772;2023-05-03T00:33:54;8.90;70.20
56478;DHT22;42382;53.210;5.772;2023-05-03T00:36:19;9.00;70.10
56478;DHT22;42382;53.210;5.772;2023-05-03T00:38:45;9.00;70.10
56478;DHT22;42382;53.210;5.772;2023-05-03T00:41:11;9.00;70.10
56478;DHT22;42382;53.210;5.772;2023-05-03T00:43:38;9.00;70.30
56478;DHT22;42382;53.210;5.772;2023-05-03T00:46:05;9.00;70.20
56478;DHT22;42382;53.210;5.772;2023-05-03T00:48:32;9.00;70.20
56478;DHT22;42382;53.210;5.772;2023-05-03T00:50:59;9.00;70.20
56478;DHT22;42382;53.210;5.772;2023-05-03T00:53:26;9.00;70.20
56478;DHT22;42382;53.210;5.772;2023-05-03T00:55:54;9.00;70.20
56478;DHT22;42382;53.210;5.772;2023-05-03T00:58:20;9.00;70.10
56478;DHT22;42382;53.210;5.772;2023-05-03T01:00:47;8.90;70.10
56478;DHT22;42382;53.210;5.772;2023-05-03T01:03:13;9.00;69.80
56478;DHT22;42382;53.210;5.772;2023-05-03T01:08:49;9.00;69.70
56478;DHT22;42382;53.210;5.772;2023-05-03T01:11:33;8.90;69.60
56478;DHT22;42382;53.210;5.772;2023-05-03T01:14:13;8.90;69.50
56478;DHT22;42382;53.210;5.772;2023-05-03T01:16:56;8.90;69.40
56478;DHT22;42382;53.210;5.772;2023-05-03T01:19:35;8.90;69.40
56478;DHT22;42382;53.210;5.772;2023-05-03T01:25:08;8.80;69.40
56478;DHT22;42382;53.210;5.772;2023-05-03T01:27:37;8.70;69.30
56478;DHT22;42382;53.210;5.772;2023-05-03T01:30:08;8.70;69.20
56478;DHT22;42382;53.210;5.772;2023-05-03T01:32:42;8.70;69.30
56478;DHT22;42382;53.210;5.772;2023-05-03T01:35:40;8.60;69.30
56478;DHT22;42382;53.210;5.772;2023-05-03T01:38:09;8.50;69.30
56478;DHT22;42382;53.210;5.772;2023-05-03T01:40:42;8.40;69.40
56478;DHT22;42382;53.210;5.772;2023-05-03T01:43:12;8.40;69.50
56478;DHT22;42382;53.210;5.772;2023-05-03T01:45:40;8.40;69.70
56478;DHT22;42382;53.210;5.772;2023-05-03T01:48:24;8.30;69.80
56478;DHT22;42382;53.210;5.772;2023-05-03T01:50:50;8.30;69.90
56478;DHT22;42382;53.210;5.772;2023-05-03T01:53:15;8.20;70.50
56478;DHT22;42382;53.210;5.772;2023-05-03T01:55:41;8.10;70.70
56478;DHT22;42382;53.210;5.772;2023-05-03T01:58:06;8.10;70.70
56478;DHT22;42382;53.210;5.772;2023-05-03T02:00:32;8.10;70.80
56478;DHT22;42382;53.210;5.772;2023-05-03T02:02:58;8.10;70.70
56478;DHT22;42382;53.210;5.772;2023-05-03T02:05:23;8.10;70.70
56478;DHT22;42382;53.210;5.772;2023-05-03T02:07:50;8.10;70.90
56478;DHT22;42382;53.210;5.772;2023-05-03T02:10:16;8.10;70.90
56478;DHT22;42382;53.210;5.772;2023-05-03T02:12:42;8.10;70.90
56478;DHT22;42382;53.210;5.772;2023-05-03T02:15:09;8.10;71.00
56478;DHT22;42382;53.210;5.772;2023-05-03T02:17:34;8.10;71.10
56478;DHT22;42382;53.210;5.772;2023-05-03T02:20:00;8.20;71.20
56478;DHT22;42382;53.210;5.772;2023-05-03T02:22:26;8.20;71.20
56478;DHT22;42382;53.210;5.772;2023-05-03T02:24:51;8.20;71.20
56478;DHT22;42382;53.210;5.772;2023-05-03T02:27:17;8.20;71.00
56478;DHT22;42382;53.210;5.772;2023-05-03T02:29:43;8.20;70.80
56478;DHT22;42382;53.210;5.772;2023-05-03T02:32:08;8.30;70.90
56478;DHT22;42382;53.210;5.772;2023-05-03T02:34:34;8.30;70.70
56478;DHT22;42382;53.210;5.772;2023-05-03T02:37:00;8.30;70.70
56478;DHT22;42382;53.210;5.772;2023-05-03T02:39:25;8.30;70.60
56478;DHT22;42382;53.210;5.772;2023-05-03T02:41:51;8.30;70.40
56478;DHT22;42382;53.210;5.772;2023-05-03T02:44:16;8.30;70.40
56478;DHT22;42382;53.210;5.772;2023-05-03T02:46:42;8.40;70.10
56478;DHT22;42382;53.210;5.772;2023-05-03T02:49:08;8.40;70.10
56478;DHT22;42382;53.210;5.772;2023-05-03T02:51:34;8.40;70.00
56478;DHT22;42382;53.210;5.772;2023-05-03T02:54:00;8.40;69.90
56478;DHT22;42382;53.210;5.772;2023-05-03T02:56:26;8.40;69.70
56478;DHT22;42382;53.210;5.772;2023-05-03T02:58:53;8.40;69.40
56478;DHT22;42382;53.210;5.772;2023-05-03T03:01:19;8.40;69.20
56478;DHT22;42382;53.210;5.772;2023-05-03T03:03:45;8.40;69.00
56478;DHT22;42382;53.210;5.772;2023-05-03T03:06:10;8.40;69.00
56478;DHT22;42382;53.210;5.772;2023-05-03T03:08:36;8.40;69.00
56478;DHT22;42382;53.210;5.772;2023-05-03T03:11:03;8.30;68.90
56478;DHT22;42382;53.210;5.772;2023-05-03T03:13:29;8.30;68.80
56478;DHT22;42382;53.210;5.772;2023-05-03T03:15:54;8.30;68.80
56478;DHT22;42382;53.210;5.772;2023-05-03T03:18:20;8.30;68.80
56478;DHT22;42382;53.210;5.772;2023-05-03T03:20:45;8.30;68.70
56478;DHT22;42382;53.210;5.772;2023-05-03T03:23:11;8.30;68.60
56478;DHT22;42382;53.210;5.772;2023-05-03T03:25:37;8.30;68.60
56478;DHT22;42382;53.210;5.772;2023-05-03T03:28:02;8.20;68.60
56478;DHT22;42382;53.210;5.772;2023-05-03T03:30:28;8.30;68.70
56478;DHT22;42382;53.210;5.772;2023-05-03T03:32:54;8.20;68.70
56478;DHT22;42382;53.210;5.772;2023-05-03T03:35:20;8.30;68.70
56478;DHT22;42382;53.210;5.772;2023-05-03T03:37:46;8.20;68.80
56478;DHT22;42382;53.210;5.772;2023-05-03T03:40:12;8.30;68.80
56478;DHT22;42382;53.210;5.772;2023-05-03T03:42:38;8.30;68.70
56478;DHT22;42382;53.210;5.772;2023-05-03T03:45:04;8.20;68.80
56478;DHT22;42382;53.210;5.772;2023-05-03T03:47:31;8.20;68.90
56478;DHT22;42382;53.210;5.772;2023-05-03T03:49:58;8.20;68.90
56478;DHT22;42382;53.210;5.772;2023-05-03T03:52:25;8.20;68.90
56478;DHT22;42382;53.210;5.772;2023-05-03T03:54:51;8.30;68.90
56478;DHT22;42382;53.210;5.772;2023-05-03T03:57:17;8.20;68.70
56478;DHT22;42382;53.210;5.772;2023-05-03T03:59:42;8.20;68.70
56478;DHT22;42382;53.210;5.772;2023-05-03T04:02:09;8.20;68.90
56478;DHT22;42382;53.210;5.772;2023-05-03T04:04:34;8.10;68.70
56478;DHT22;42382;53.210;5.772;2023-05-03T04:07:00;8.20;68.60
56478;DHT22;42382;53.210;5.772;2023-05-03T04:09:26;8.10;68.70
56478;DHT22;42382;53.210;5.772;2023-05-03T04:11:52;8.10;68.70
56478;DHT22;42382;53.210;5.772;2023-05-03T04:14:17;8.20;68.80
56478;DHT22;42382;53.210;5.772;2023-05-03T04:16:43;8.10;68.60
56478;DHT22;42382;53.210;5.772;2023-05-03T04:19:08;8.10;68.60
56478;DHT22;42382;53.210;5.772;2023-05-03T04:21:34;8.10;68.60
56478;DHT22;42382;53.210;5.772;2023-05-03T04:24:00;8.10;68.70
56478;DHT22;42382;53.210;5.772;2023-05-03T04:26:28;8.10;68.70
56478;DHT22;42382;53.210;5.772;2023-05-03T04:28:57;8.10;68.90
56478;DHT22;42382;53.210;5.772;2023-05-03T04:31:24;8.10;68.80
56478;DHT22;42382;53.210;5.772;2023-05-03T04:33:49;8.20;68.80
56478;DHT22;42382;53.210;5.772;2023-05-03T04:36:15;8.20;68.80
56478;DHT22;42382;53.210;5.772;2023-05-03T04:38:41;8.20;68.90
56478;DHT22;42382;53.210;5.772;2023-05-03T04:41:08;8.20;68.90
56478;DHT22;42382;53.210;5.772;2023-05-03T04:43:34;8.20;68.90
56478;DHT22;42382;53.210;5.772;2023-05-03T04:46:00;8.20;68.90
56478;DHT22;42382;53.210;5.772;2023-05-03T04:48:28;8.20;68.30
56478;DHT22;42382;53.210;5.772;2023-05-03T04:50:53;8.20;68.20
56478;DHT22;42382;53.210;5.772;2023-05-03T04:53:19;8.30;68.10
56478;DHT22;42382;53.210;5.772;2023-05-03T04:55:44;8.30;68.10
56478;DHT22;42382;53.210;5.772;2023-05-03T04:58:12;8.30;67.90
56478;DHT22;42382;53.210;5.772;2023-05-03T05:00:38;8.30;67.50
56478;DHT22;42382;53.210;5.772;2023-05-03T05:03:04;8.40;67.30
56478;DHT22;42382;53.210;5.772;2023-05-03T05:05:30;8.40;67.30
56478;DHT22;42382;53.210;5.772;2023-05-03T05:07:56;8.40;67.10
56478;DHT22;42382;53.210;5.772;2023-05-03T05:10:22;8.40;66.70
56478;DHT22;42382;53.210;5.772;2023-05-03T05:12:48;8.50;66.80
56478;DHT22;42382;53.210;5.772;2023-05-03T05:15:13;8.50;66.80
56478;DHT22;42382;53.210;5.772;2023-05-03T05:17:39;8.60;66.80
56478;DHT22;42382;53.210;5.772;2023-05-03T05:20:05;8.60;66.60
56478;DHT22;42382;53.210;5.772;2023-05-03T05:22:32;8.70;66.60
56478;DHT22;42382;53.210;5.772;2023-05-03T05:24:58;8.70;66.50
56478;DHT22;42382;53.210;5.772;2023-05-03T05:27:25;8.80;66.50
56478;DHT22;42382;53.210;5.772;2023-05-03T05:29:51;8.80;66.50
56478;DHT22;42382;53.210;5.772;2023-05-03T05:32:17;8.90;66.40
56478;DHT22;42382;53.210;5.772;2023-05-03T05:34:42;8.90;65.80
56478;DHT22;42382;53.210;5.772;2023-05-03T05:37:09;9.00;65.90
56478;DHT22;42382;53.210;5.772;2023-05-03T05:39:35;9.00;65.90
56478;DHT22;42382;53.210;5.772;2023-05-03T05:42:00;9.10;65.80
56478;DHT22;42382;53.210;5.772;2023-05-03T05:44:26;9.10;65.40
56478;DHT22;42382;53.210;5.772;2023-05-03T05:46:51;9.10;65.20
56478;DHT22;42382;53.210;5.772;2023-05-03T05:49:17;9.20;65.10
56478;DHT22;42382;53.210;5.772;2023-05-03T05:51:42;9.20;65.00
56478;DHT22;42382;53.210;5.772;2023-05-03T05:54:09;9.30;64.90
56478;DHT22;42382;53.210;5.772;2023-05-03T05:56:35;9.30;64.40
56478;DHT22;42382;53.210;5.772;2023-05-03T05:59:00;9.40;63.90
56478;DHT22;42382;53.210;5.772;2023-05-03T06:01:29;9.40;63.20
56478;DHT22;42382;53.210;5.772;2023-05-03T06:03:56;9.40;62.70
56478;DHT22;42382;53.210;5.772;2023-05-03T06:06:22;9.50;63.30
56478;DHT22;42382;53.210;5.772;2023-05-03T06:08:47;9.50;62.60
56478;DHT22;42382;53.210;5.772;2023-05-03T06:11:18;9.60;62.20
56478;DHT22;42382;53.210;5.772;2023-05-03T06:13:43;9.60;61.70
56478;DHT22;42382;53.210;5.772;2023-05-03T06:16:10;9.60;61.30
56478;DHT22;42382;53.210;5.772;2023-05-03T06:18:36;9.60;61.30
56478;DHT22;42382;53.210;5.772;2023-05-03T06:21:01;9.70;61.60
56478;DHT22;42382;53.210;5.772;2023-05-03T06:23:27;9.80;61.50
56478;DHT22;42382;53.210;5.772;2023-05-03T06:25:53;9.90;61.20
56478;DHT22;42382;53.210;5.772;2023-05-03T06:28:18;9.90;60.60
56478;DHT22;42382;53.210;5.772;2023-05-03T06:30:50;9.90;60.40
56478;DHT22;42382;53.210;5.772;2023-05-03T06:33:19;10.00;60.70
56478;DHT22;42382;53.210;5.772;2023-05-03T06:35:45;10.10;60.30
56478;DHT22;42382;53.210;5.772;2023-05-03T06:38:11;10.20;59.90
56478;DHT22;42382;53.210;5.772;2023-05-03T06:40:37;10.20;59.30
56478;DHT22;42382;53.210;5.772;2023-05-03T06:43:03;10.40;59.70
56478;DHT22;42382;53.210;5.772;2023-05-03T06:45:28;10.40;59.30
56478;DHT22;42382;53.210;5.772;2023-05-03T06:47:54;10.50;59.20
56478;DHT22;42382;53.210;5.772;2023-05-03T06:50:20;10.60;58.60
56478;DHT22;42382;53.210;5.772;2023-05-03T06:52:46;10.70;58.10
56478;DHT22;42382;53.210;5.772;2023-05-03T06:55:12;10.70;57.60
56478;DHT22;42382;53.210;5.772;2023-05-03T06:57:40;10.80;57.70
56478;DHT22;42382;53.210;5.772;2023-05-03T07:00:07;10.90;57.80
56478;DHT22;42382;53.210;5.772;2023-05-03T07:02:33;10.90;57.70
56478;DHT22;42382;53.210;5.772;2023-05-03T07:04:59;11.00;56.80
56478;DHT22;42382;53.210;5.772;2023-05-03T07:07:25;11.00;56.80
56478;DHT22;42382;53.210;5.772;2023-05-03T07:09:50;11.10;56.40
56478;DHT22;42382;53.210;5.772;2023-05-03T07:12:16;11.00;56.10
56478;DHT22;42382;53.210;5.772;2023-05-03T07:14:42;11.10;56.40
56478;DHT22;42382;53.210;5.772;2023-05-03T07:17:08;11.00;55.80
56478;DHT22;42382;53.210;5.772;2023-05-03T07:19:34;11.00;56.10
56478;DHT22;42382;53.210;5.772;2023-05-03T07:21:59;10.90;55.70
56478;DHT22;42382;53.210;5.772;2023-05-03T07:24:27;10.90;56.40
56478;DHT22;42382;53.210;5.772;2023-05-03T07:26:53;11.00;56.90
56478;DHT22;42382;53.210;5.772;2023-05-03T07:29:18;11.00;56.50
56478;DHT22;42382;53.210;5.772;2023-05-03T07:31:44;11.10;56.30
56478;DHT22;42382;53.210;5.772;2023-05-03T07:34:10;11.10;56.80
56478;DHT22;42382;53.210;5.772;2023-05-03T07:36:37;11.10;56.70
56478;DHT22;42382;53.210;5.772;2023-05-03T07:39:04;11.20;56.40
56478;DHT22;42382;53.210;5.772;2023-05-03T07:41:30;11.20;57.20
56478;DHT22;42382;53.210;5.772;2023-05-03T07:43:56;11.20;57.00
56478;DHT22;42382;53.210;5.772;2023-05-03T07:46:22;11.30;57.30
56478;DHT22;42382;53.210;5.772;2023-05-03T07:48:48;11.30;56.90
56478;DHT22;42382;53.210;5.772;2023-05-03T07:51:13;11.20;57.60
56478;DHT22;42382;53.210;5.772;2023-05-03T07:53:39;11.30;57.90
56478;DHT22;42382;53.210;5.772;2023-05-03T07:56:08;11.30;57.60
56478;DHT22;42382;53.210;5.772;2023-05-03T07:58:34;11.30;57.30
56478;DHT22;42382;53.210;5.772;2023-05-03T08:01:00;11.20;57.50
56478;DHT22;42382;53.210;5.772;2023-05-03T08:03:26;11.10;57.30
56478;DHT22;42382;53.210;5.772;2023-05-03T08:05:51;11.10;57.70
56478;DHT22;42382;53.210;5.772;2023-05-03T08:08:17;11.10;58.00
56478;DHT22;42382;53.210;5.772;2023-05-03T08:10:43;11.10;57.80
56478;DHT22;42382;53.210;5.772;2023-05-03T08:13:08;11.10;58.00
56478;DHT22;42382;53.210;5.772;2023-05-03T08:15:34;11.00;58.00
56478;DHT22;42382;53.210;5.772;2023-05-03T08:18:00;11.00;58.60
56478;DHT22;42382;53.210;5.772;2023-05-03T08:20:25;11.00;58.80
56478;DHT22;42382;53.210;5.772;2023-05-03T08:22:58;11.00;59.20
56478;DHT22;42382;53.210;5.772;2023-05-03T08:25:23;11.00;59.10
56478;DHT22;42382;53.210;5.772;2023-05-03T08:27:51;11.10;59.00
56478;DHT22;42382;53.210;5.772;2023-05-03T08:30:17;11.10;59.10
56478;DHT22;42382;53.210;5.772;2023-05-03T08:32:43;11.10;59.20
56478;DHT22;42382;53.210;5.772;2023-05-03T08:35:09;11.10;59.00
56478;DHT22;42382;53.210;5.772;2023-05-03T08:37:38;11.10;59.00
56478;DHT22;42382;53.210;5.772;2023-05-03T08:40:06;11.20;58.80
56478;DHT22;42382;53.210;5.772;2023-05-03T08:42:32;11.20;58.90
56478;DHT22;42382;53.210;5.772;2023-05-03T08:44:58;11.30;57.80
56478;DHT22;42382;53.210;5.772;2023-05-03T08:47:25;11.30;57.40
56478;DHT22;42382;53.210;5.772;2023-05-03T08:49:52;11.30;57.10
56478;DHT22;42382;53.210;5.772;2023-05-03T08:52:18;11.40;57.50
56478;DHT22;42382;53.210;5.772;2023-05-03T08:54:45;11.40;57.20
56478;DHT22;42382;53.210;5.772;2023-05-03T08:57:13;11.50;57.30
56478;DHT22;42382;53.210;5.772;2023-05-03T08:59:49;11.50;56.60
56478;DHT22;42382;53.210;5.772;2023-05-03T09:02:16;11.60;56.70
56478;DHT22;42382;53.210;5.772;2023-05-03T09:04:42;11.70;56.90
56478;DHT22;42382;53.210;5.772;2023-05-03T09:07:09;11.80;57.40
56478;DHT22;42382;53.210;5.772;2023-05-03T09:09:35;11.80;56.10
56478;DHT22;42382;53.210;5.772;2023-05-03T09:12:02;11.90;55.80
56478;DHT22;42382;53.210;5.772;2023-05-03T09:14:27;11.90;55.40
56478;DHT22;42382;53.210;5.772;2023-05-03T09:16:53;11.90;55.70
56478;DHT22;42382;53.210;5.772;2023-05-03T09:19:18;11.90;55.90
56478;DHT22;42382;53.210;5.772;2023-05-03T09:21:46;12.00;55.40
56478;DHT22;42382;53.210;5.772;2023-05-03T09:24:15;12.00;56.10
56478;DHT22;42382;53.210;5.772;2023-05-03T09:26:41;12.10;56.20
56478;DHT22;42382;53.210;5.772;2023-05-03T09:29:08;12.20;56.10
56478;DHT22;42382;53.210;5.772;2023-05-03T09:31:35;12.20;55.60
56478;DHT22;42382;53.210;5.772;2023-05-03T09:34:01;12.20;55.80
56478;DHT22;42382;53.210;5.772;2023-05-03T09:36:45;12.20;55.30
56478;DHT22;42382;53.210;5.772;2023-05-03T09:39:18;12.20;55.00
56478;DHT22;42382;53.210;5.772;2023-05-03T09:41:44;12.20;55.20
56478;DHT22;42382;53.210;5.772;2023-05-03T09:44:10;12.20;55.80
56478;DHT22;42382;53.210;5.772;2023-05-03T09:46:36;12.20;55.60
56478;DHT22;42382;53.210;5.772;2023-05-03T09:49:02;12.30;55.40
56478;DHT22;42382;53.210;5.772;2023-05-03T09:51:29;12.20;55.30
56478;DHT22;42382;53.210;5.772;2023-05-03T09:53:57;12.30;55.50
56478;DHT22;42382;53.210;5.772;2023-05-03T09:56:24;12.30;55.30
56478;DHT22;42382;53.210;5.772;2023-05-03T09:58:52;12.30;54.70
56478;DHT22;42382;53.210;5.772;2023-05-03T10:01:19;12.20;54.60
56478;DHT22;42382;53.210;5.772;2023-05-03T10:03:48;12.30;55.40
56478;DHT22;42382;53.210;5.772;2023-05-03T10:06:30;12.30;55.70
56478;DHT22;42382;53.210;5.772;2023-05-03T10:09:04;12.40;54.80
56478;DHT22;42382;53.210;5.772;2023-05-03T10:11:33;12.50;54.40
56478;DHT22;42382;53.210;5.772;2023-05-03T10:13:59;12.50;54.80
56478;DHT22;42382;53.210;5.772;2023-05-03T10:16:30;12.50;54.60
56478;DHT22;42382;53.210;5.772;2023-05-03T10:19:28;12.60;54.80
56478;DHT22;42382;53.210;5.772;2023-05-03T10:22:06;12.70;54.40
56478;DHT22;42382;53.210;5.772;2023-05-03T10:24:33;12.80;54.50
56478;DHT22;42382;53.210;5.772;2023-05-03T10:27:00;12.90;53.60
56478;DHT22;42382;53.210;5.772;2023-05-03T10:32:20;13.10;53.50
56478;DHT22;42382;53.210;5.772;2023-05-03T10:35:14;13.10;53.80
56478;DHT22;42382;53.210;5.772;2023-05-03T10:37:42;13.30;53.90
56478;DHT22;42382;53.210;5.772;2023-05-03T10:40:09;13.40;53.10
56478;DHT22;42382;53.210;5.772;2023-05-03T10:42:37;13.50;52.70
56478;DHT22;42382;53.210;5.772;2023-05-03T10:45:03;13.40;52.70
56478;DHT22;42382;53.210;5.772;2023-05-03T10:47:29;13.60;52.60
56478;DHT22;42382;53.210;5.772;2023-05-03T10:55:15;13.40;52.30
56478;DHT22;42382;53.210;5.772;2023-05-03T10:57:43;13.50;52.60
56478;DHT22;42382;53.210;5.772;2023-05-03T11:00:14;13.60;52.90
56478;DHT22;42382;53.210;5.772;2023-05-03T11:05:30;13.60;51.20
56478;DHT22;42382;53.210;5.772;2023-05-03T11:08:25;13.70;51.50
56478;DHT22;42382;53.210;5.772;2023-05-03T11:10:58;13.90;51.40
56478;DHT22;42382;53.210;5.772;2023-05-03T11:13:25;13.90;51.80
56478;DHT22;42382;53.210;5.772;2023-05-03T11:15:53;14.10;51.70
56478;DHT22;42382;53.210;5.772;2023-05-03T11:18:19;14.20;51.80
56478;DHT22;42382;53.210;5.772;2023-05-03T11:20:45;14.20;50.90
56478;DHT22;42382;53.210;5.772;2023-05-03T11:23:11;14.30;50.80
56478;DHT22;42382;53.210;5.772;2023-05-03T11:25:37;14.40;51.00
56478;DHT22;42382;53.210;5.772;2023-05-03T11:28:03;14.60;50.00
56478;DHT22;42382;53.210;5.772;2023-05-03T11:30:32;14.60;49.80
56478;DHT22;42382;53.210;5.772;2023-05-03T11:32:58;14.70;49.10
56478;DHT22;42382;53.210;5.772;2023-05-03T11:35:24;14.70;48.70
56478;DHT22;42382;53.210;5.772;2023-05-03T11:37:52;14.70;48.30
56478;DHT22;42382;53.210;5.772;2023-05-03T11:40:19;14.50;48.30
56478;DHT22;42382;53.210;5.772;2023-05-03T11:42:58;14.30;48.70
56478;DHT22;42382;53.210;5.772;2023-05-03T11:45:30;14.20;49.00
56478;DHT22;42382;53.210;5.772;2023-05-03T11:47:56;14.20;49.90
56478;DHT22;42382;53.210;5.772;2023-05-03T11:50:46;14.30;50.40
56478;DHT22;42382;53.210;5.772;2023-05-03T11:53:15;14.40;50.40
56478;DHT22;42382;53.210;5.772;2023-05-03T11:55:45;14.60;50.70
56478;DHT22;42382;53.210;5.772;2023-05-03T11:58:20;14.80;49.70
56478;DHT22;42382;53.210;5.772;2023-05-03T12:00:48;15.00;49.70
56478;DHT22;42382;53.210;5.772;2023-05-03T12:03:18;15.00;48.40
56478;DHT22;42382;53.210;5.772;2023-05-03T12:05:44;15.00;48.40
56478;DHT22;42382;53.210;5.772;2023-05-03T12:08:10;14.90;47.40
56478;DHT22;42382;53.210;5.772;2023-05-03T12:10:36;15.00;47.50
56478;DHT22;42382;53.210;5.772;2023-05-03T12:13:02;15.10;47.00
56478;DHT22;42382;53.210;5.772;2023-05-03T12:15:32;15.30;46.90
56478;DHT22;42382;53.210;5.772;2023-05-03T12:17:59;15.40;46.50
56478;DHT22;42382;53.210;5.772;2023-05-03T12:20:26;15.40;46.50
56478;DHT22;42382;53.210;5.772;2023-05-03T12:23:03;15.40;46.70
56478;DHT22;42382;53.210;5.772;2023-05-03T12:25:30;15.50;47.10
56478;DHT22;42382;53.210;5.772;2023-05-03T12:28:01;15.50;47.30
56478;DHT22;42382;53.210;5.772;2023-05-03T12:30:43;15.60;47.30
56478;DHT22;42382;53.210;5.772;2023-05-03T12:33:12;15.70;47.20
56478;DHT22;42382;53.210;5.772;2023-05-03T12:35:38;15.80;47.50
56478;DHT22;42382;53.210;5.772;2023-05-03T12:38:04;15.90;47.20
56478;DHT22;42382;53.210;5.772;2023-05-03T12:40:31;15.90;46.10
56478;DHT22;42382;53.210;5.772;2023-05-03T12:42:57;15.90;46.10
56478;DHT22;42382;53.210;5.772;2023-05-03T12:45:22;15.80;46.50
56478;DHT22;42382;53.210;5.772;2023-05-03T12:47:48;15.70;46.50
56478;DHT22;42382;53.210;5.772;2023-05-03T12:50:13;15.70;47.40
56478;DHT22;42382;53.210;5.772;2023-05-03T12:52:39;15.80;47.50
56478;DHT22;42382;53.210;5.772;2023-05-03T12:55:05;15.90;47.50
56478;DHT22;42382;53.210;5.772;2023-05-03T12:57:31;16.00;46.20
56478;DHT22;42382;53.210;5.772;2023-05-03T12:59:58;16.00;46.30
56478;DHT22;42382;53.210;5.772;2023-05-03T13:02:23;15.90;44.40
56478;DHT22;42382;53.210;5.772;2023-05-03T13:04:49;15.70;45.90
56478;DHT22;42382;53.210;5.772;2023-05-03T13:07:20;15.60;46.60
56478;DHT22;42382;53.210;5.772;2023-05-03T13:09:46;15.40;46.00
56478;DHT22;42382;53.210;5.772;2023-05-03T13:12:13;15.20;45.90
56478;DHT22;42382;53.210;5.772;2023-05-03T13:14:39;14.90;47.10
56478;DHT22;42382;53.210;5.772;2023-05-03T13:17:06;14.80;47.00
56478;DHT22;42382;53.210;5.772;2023-05-03T13:19:32;14.80;48.10
56478;DHT22;42382;53.210;5.772;2023-05-03T13:22:00;14.80;48.10
56478;DHT22;42382;53.210;5.772;2023-05-03T13:24:26;14.70;47.50
56478;DHT22;42382;53.210;5.772;2023-05-03T13:26:51;14.50;48.10
56478;DHT22;42382;53.210;5.772;2023-05-03T13:29:17;14.50;49.10
56478;DHT22;42382;53.210;5.772;2023-05-03T13:31:42;14.60;48.90
56478;DHT22;42382;53.210;5.772;2023-05-03T13:34:08;14.80;48.70
56478;DHT22;42382;53.210;5.772;2023-05-03T13:36:34;14.70;48.60
56478;DHT22;42382;53.210;5.772;2023-05-03T13:38:59;14.70;48.50
56478;DHT22;42382;53.210;5.772;2023-05-03T13:41:26;14.50;48.60
56478;DHT22;42382;53.210;5.772;2023-05-03T13:43:51;14.40;48.20
56478;DHT22;42382;53.210;5.772;2023-05-03T13:46:17;14.40;48.40
56478;DHT22;42382;53.210;5.772;2023-05-03T13:48:43;14.30;49.00
56478;DHT22;42382;53.210;5.772;2023-05-03T13:51:11;14.30;49.60
56478;DHT22;42382;53.210;5.772;2023-05-03T13:53:38;14.40;50.50
56478;DHT22;42382;53.210;5.772;2023-05-03T13:56:05;14.50;50.40
56478;DHT22;42382;53.210;5.772;2023-05-03T13:58:31;14.60;50.60
56478;DHT22;42382;53.210;5.772;2023-05-03T14:00:56;14.70;50.40
56478;DHT22;42382;53.210;5.772;2023-05-03T14:03:22;14.70;49.20
56478;DHT22;42382;53.210;5.772;2023-05-03T14:05:48;14.70;49.20
56478;DHT22;42382;53.210;5.772;2023-05-03T14:08:15;14.60;49.30
56478;DHT22;42382;53.210;5.772;2023-05-03T14:10:43;14.60;49.70
56478;DHT22;42382;53.210;5.772;2023-05-03T14:13:09;14.70;51.40
56478;DHT22;42382;53.210;5.772;2023-05-03T14:15:39;14.70;49.20
56478;DHT22;42382;53.210;5.772;2023-05-03T14:18:05;14.70;49.90
56478;DHT22;42382;53.210;5.772;2023-05-03T14:20:32;14.60;49.80
56478;DHT22;42382;53.210;5.772;2023-05-03T14:23:01;14.60;50.40
56478;DHT22;42382;53.210;5.772;2023-05-03T14:25:28;14.60;50.40
56478;DHT22;42382;53.210;5.772;2023-05-03T14:27:54;14.60;49.70
56478;DHT22;42382;53.210;5.772;2023-05-03T14:30:19;14.60;51.00
56478;DHT22;42382;53.210;5.772;2023-05-03T14:32:46;14.60;51.50
56478;DHT22;42382;53.210;5.772;2023-05-03T14:35:15;14.60;49.00
56478;DHT22;42382;53.210;5.772;2023-05-03T14:37:45;14.40;50.10
56478;DHT22;42382;53.210;5.772;2023-05-03T14:40:11;14.20;51.20
56478;DHT22;42382;53.210;5.772;2023-05-03T14:42:37;14.30;51.40
56478;DHT22;42382;53.210;5.772;2023-05-03T14:45:03;14.30;52.00
56478;DHT22;42382;53.210;5.772;2023-05-03T14:47:30;14.40;50.80
56478;DHT22;42382;53.210;5.772;2023-05-03T14:49:55;14.30;50.30
56478;DHT22;42382;53.210;5.772;2023-05-03T14:52:21;14.30;50.90
56478;DHT22;42382;53.210;5.772;2023-05-03T14:54:47;14.30;51.50
56478;DHT22;42382;53.210;5.772;2023-05-03T14:57:12;14.30;51.80
56478;DHT22;42382;53.210;5.772;2023-05-03T14:59:38;14.40;51.40
56478;DHT22;42382;53.210;5.772;2023-05-03T15:02:03;14.40;51.80
56478;DHT22;42382;53.210;5.772;2023-05-03T15:04:29;14.40;51.10
56478;DHT22;42382;53.210;5.772;2023-05-03T15:06:59;14.50;51.50
56478;DHT22;42382;53.210;5.772;2023-05-03T15:09:29;14.50;51.80
56478;DHT22;42382;53.210;5.772;2023-05-03T15:11:55;14.60;51.50
56478;DHT22;42382;53.210;5.772;2023-05-03T15:14:21;14.70;50.40
56478;DHT22;42382;53.210;5.772;2023-05-03T15:16:47;14.60;51.40
56478;DHT22;42382;53.210;5.772;2023-05-03T15:19:12;14.60;50.70
56478;DHT22;42382;53.210;5.772;2023-05-03T15:21:49;14.50;51.40
56478;DHT22;42382;53.210;5.772;2023-05-03T15:24:16;14.50;50.60
56478;DHT22;42382;53.210;5.772;2023-05-03T15:26:43;14.50;50.50
56478;DHT22;42382;53.210;5.772;2023-05-03T15:29:09;14.40;50.20
56478;DHT22;42382;53.210;5.772;2023-05-03T15:31:35;14.20;50.70
56478;DHT22;42382;53.210;5.772;2023-05-03T15:34:02;14.20;51.70
56478;DHT22;42382;53.210;5.772;2023-05-03T15:36:29;14.10;51.10
56478;DHT22;42382;53.210;5.772;2023-05-03T15:38:56;14.00;52.80
56478;DHT22;42382;53.210;5.772;2023-05-03T15:41:22;14.10;51.70
56478;DHT22;42382;53.210;5.772;2023-05-03T15:43:48;14.00;52.00
56478;DHT22;42382;53.210;5.772;2023-05-03T15:46:14;14.10;52.40
56478;DHT22;42382;53.210;5.772;2023-05-03T15:48:40;14.20;53.50
56478;DHT22;42382;53.210;5.772;2023-05-03T15:51:06;14.30;51.90
56478;DHT22;42382;53.210;5.772;2023-05-03T15:53:31;14.40;51.90
56478;DHT22;42382;53.210;5.772;2023-05-03T15:55:57;14.50;52.30